createdAt,value
2018-12-13T00:02:23.294Z,79.60
2018-12-13T00:04:49.579Z,79.10
2018-12-13T00:07:15.944Z,79.40
2018-12-13T00:09:42.184Z,79.40
2018-12-13T00:12:08.487Z,79.40
2018-12-13T00:14:34.832Z,79.60
2018-12-13T00:17:01.087Z,79.60
2018-12-13T00:19:27.329Z,79.60
2018-12-13T00:21:53.772Z,79.70
2018-12-13T00:24:20.017Z,79.80
2018-12-13T00:26:46.280Z,80.00
2018-12-13T00:29:12.544Z,80.40
2018-12-13T00:31:38.861Z,80.20
2018-12-13T00:34:05.108Z,80.00
2018-12-13T00:36:31.446Z,80.20
2018-12-13T00:38:57.748Z,80.40
2018-12-13T00:41:24.056Z,80.60
2018-12-13T00:43:50.296Z,80.40
2018-12-13T00:46:16.595Z,80.50
2018-12-13T00:48:42.930Z,80.40
2018-12-13T00:51:09.205Z,80.20
2018-12-13T00:53:35.452Z,80.40
2018-12-13T00:56:01.770Z,80.40
2018-12-13T00:58:28.066Z,80.40
2018-12-13T01:00:56.365Z,80.50
2018-12-13T01:03:23.703Z,80.30
2018-12-13T01:05:49.927Z,80.10
2018-12-13T01:08:16.183Z,80.30
2018-12-13T01:10:42.507Z,80.20
2018-12-13T01:13:08.858Z,80.20
2018-12-13T01:15:35.156Z,80.00
2018-12-13T01:18:01.471Z,80.30
2018-12-13T01:20:27.723Z,80.10
2018-12-13T01:22:54.004Z,80.00
2018-12-13T01:25:20.301Z,80.10
2018-12-13T01:27:46.617Z,80.70
2018-12-13T01:30:12.870Z,80.20
2018-12-13T01:32:39.172Z,79.90
2018-12-13T01:35:05.577Z,80.00
2018-12-13T01:37:31.887Z,80.20
2018-12-13T01:39:58.194Z,80.30
2018-12-13T01:42:24.502Z,80.30
2018-12-13T01:44:50.772Z,80.30
2018-12-13T01:47:17.004Z,80.50
2018-12-13T01:49:43.276Z,80.50
2018-12-13T01:52:09.557Z,80.50
2018-12-13T01:54:35.911Z,80.70
2018-12-13T01:57:02.183Z,80.60
2018-12-13T01:59:28.484Z,80.70
2018-12-13T02:01:54.741Z,80.80
2018-12-13T02:04:21.024Z,81.10
2018-12-13T02:06:47.306Z,81.10
2018-12-13T02:09:13.572Z,80.70
2018-12-13T02:11:39.836Z,80.80
2018-12-13T02:14:06.124Z,81.00
2018-12-13T02:16:32.423Z,80.80
2018-12-13T02:18:58.681Z,81.00
2018-12-13T02:21:24.978Z,81.10
2018-12-13T02:23:51.253Z,81.10
2018-12-13T02:26:17.530Z,81.10
2018-12-13T02:28:43.884Z,81.10
2018-12-13T02:31:10.116Z,81.30
2018-12-13T02:33:36.469Z,81.40
2018-12-13T02:36:03.104Z,81.60
2018-12-13T02:38:29.389Z,81.50
2018-12-13T02:40:55.705Z,81.30
2018-12-13T02:43:21.962Z,81.20
2018-12-13T02:45:48.243Z,81.30
2018-12-13T02:48:14.531Z,81.20
2018-12-13T02:50:40.964Z,81.10
2018-12-13T02:53:07.259Z,80.90
2018-12-13T02:55:33.549Z,81.00
2018-12-13T02:57:59.802Z,80.90
2018-12-13T03:00:26.082Z,80.60
2018-12-13T03:02:52.495Z,80.50
2018-12-13T03:05:18.768Z,80.60
2018-12-13T03:07:45.029Z,80.50
2018-12-13T03:10:11.359Z,80.10
2018-12-13T03:12:37.659Z,80.10
2018-12-13T03:15:04.205Z,80.10
2018-12-13T03:17:30.499Z,79.60
2018-12-13T03:19:56.883Z,79.60
2018-12-13T03:22:23.242Z,80.20
2018-12-13T03:24:49.547Z,79.30
2018-12-13T03:27:15.890Z,79.50
2018-12-13T03:29:42.144Z,79.10
2018-12-13T03:32:08.422Z,79.10
2018-12-13T03:34:34.869Z,79.10
2018-12-13T03:37:01.131Z,79.10
2018-12-13T03:39:27.437Z,79.00
2018-12-13T03:41:53.697Z,79.10
2018-12-13T03:44:20.093Z,79.30
2018-12-13T03:46:46.331Z,79.40
2018-12-13T03:49:12.577Z,79.50
2018-12-13T03:51:38.922Z,79.40
2018-12-13T03:54:05.293Z,79.30
2018-12-13T03:56:31.554Z,79.50
2018-12-13T03:58:57.812Z,79.50
2018-12-13T04:01:25.114Z,79.10
2018-12-13T04:03:51.391Z,79.20
2018-12-13T04:06:17.657Z,79.20
2018-12-13T04:08:43.940Z,79.30
2018-12-13T04:11:10.216Z,79.40
2018-12-13T04:13:36.505Z,79.30
2018-12-13T04:16:02.816Z,79.20
2018-12-13T04:18:29.095Z,79.40
2018-12-13T04:20:55.353Z,79.30
2018-12-13T04:23:21.642Z,79.30
2018-12-13T04:25:47.921Z,79.50
2018-12-13T04:28:14.148Z,79.10
2018-12-13T04:30:40.392Z,79.20
2018-12-13T04:33:06.728Z,79.30
2018-12-13T04:35:33.023Z,79.20
2018-12-13T04:37:59.258Z,79.20
2018-12-13T04:40:25.536Z,79.10
2018-12-13T04:42:52.816Z,79.30
2018-12-13T04:45:19.082Z,79.50
2018-12-13T04:47:45.356Z,79.40
2018-12-13T04:50:11.636Z,79.30
2018-12-13T04:52:37.907Z,79.40
2018-12-13T04:55:04.336Z,79.50
2018-12-13T04:57:30.701Z,79.80
2018-12-13T04:59:56.923Z,79.50
2018-12-13T05:02:23.210Z,79.60
2018-12-13T05:04:49.464Z,79.70
2018-12-13T05:07:15.825Z,79.70
2018-12-13T05:09:42.093Z,80.00
2018-12-13T05:12:08.333Z,80.00
2018-12-13T05:14:34.588Z,80.20
2018-12-13T05:17:00.978Z,79.80
2018-12-13T05:19:27.243Z,79.80
2018-12-13T05:21:53.565Z,80.10
2018-12-13T05:24:19.805Z,79.80
2018-12-13T05:26:46.092Z,79.70
2018-12-13T05:29:12.477Z,79.80
2018-12-13T05:31:38.861Z,79.90
2018-12-13T05:34:05.128Z,79.80
2018-12-13T05:36:31.372Z,79.70
2018-12-13T05:38:57.640Z,79.80
2018-12-13T05:41:23.908Z,79.80
2018-12-13T05:43:52.202Z,79.70
2018-12-13T05:46:18.424Z,79.80
2018-12-13T05:48:44.699Z,80.00
2018-12-13T05:51:10.972Z,79.90
2018-12-13T05:53:37.253Z,79.40
2018-12-13T05:56:03.520Z,79.70
2018-12-13T05:58:29.825Z,79.70
2018-12-13T06:00:56.846Z,79.70
2018-12-13T06:03:23.271Z,79.50
2018-12-13T06:05:49.607Z,79.60
2018-12-13T06:08:15.940Z,79.80
2018-12-13T06:10:42.224Z,79.70
2018-12-13T06:13:08.548Z,79.40
2018-12-13T06:15:35.119Z,79.70
2018-12-13T06:18:06.825Z,79.70
2018-12-13T06:20:29.696Z,79.50
2018-12-13T06:22:55.990Z,79.40
2018-12-13T06:25:22.252Z,79.20
2018-12-13T06:27:48.550Z,79.00
2018-12-13T06:30:14.852Z,79.20
2018-12-13T06:32:41.147Z,79.00
2018-12-13T06:35:07.409Z,78.90
2018-12-13T06:37:33.712Z,78.80
2018-12-13T06:40:00.031Z,78.50
2018-12-13T06:42:26.343Z,79.00
2018-12-13T06:44:52.592Z,78.30
2018-12-13T06:47:18.854Z,78.20
2018-12-13T06:49:45.127Z,78.50
2018-12-13T06:52:11.412Z,78.10
2018-12-13T06:54:37.688Z,78.40
2018-12-13T06:57:03.929Z,78.10
2018-12-13T06:59:30.198Z,78.40
2018-12-13T07:01:56.507Z,77.70
2018-12-13T07:04:22.747Z,77.80
2018-12-13T07:06:49.118Z,77.60
2018-12-13T07:09:15.440Z,77.50
2018-12-13T07:11:41.793Z,77.20
2018-12-13T07:14:08.114Z,77.10
2018-12-13T07:16:34.420Z,77.20
2018-12-13T07:19:00.692Z,77.30
2018-12-13T07:21:26.932Z,77.70
2018-12-13T07:23:53.194Z,77.60
2018-12-13T07:26:19.502Z,77.10
2018-12-13T07:28:45.788Z,77.10
2018-12-13T07:31:12.045Z,77.10
2018-12-13T07:33:38.370Z,77.10
2018-12-13T07:36:04.634Z,76.60
2018-12-13T07:38:30.899Z,76.50
2018-12-13T07:40:57.204Z,76.50
2018-12-13T07:43:23.456Z,76.60
2018-12-13T07:45:49.767Z,76.40
2018-12-13T07:48:16.061Z,76.10
2018-12-13T07:50:43.484Z,76.30
2018-12-13T07:53:09.759Z,75.90
2018-12-13T07:55:36.036Z,75.80
2018-12-13T07:58:02.338Z,76.20
2018-12-13T08:00:28.754Z,76.10
2018-12-13T08:02:55.010Z,75.30
2018-12-13T08:05:21.344Z,75.60
2018-12-13T08:07:47.673Z,75.20
2018-12-13T08:10:13.952Z,75.30
2018-12-13T08:12:40.261Z,75.70
2018-12-13T08:15:06.706Z,76.00
2018-12-13T08:17:33.136Z,76.00
2018-12-13T08:19:59.504Z,75.60
2018-12-13T08:22:25.828Z,75.10
2018-12-13T08:24:52.165Z,75.10
2018-12-13T08:27:18.523Z,75.20
2018-12-13T08:29:44.746Z,75.40
2018-12-13T08:32:11.032Z,75.20
2018-12-13T08:34:37.307Z,75.00
2018-12-13T08:37:03.564Z,74.60
2018-12-13T08:39:29.884Z,74.60
2018-12-13T08:41:56.230Z,74.00
2018-12-13T08:44:22.492Z,74.20
2018-12-13T08:46:48.754Z,74.40
2018-12-13T08:49:15.051Z,74.40
2018-12-13T08:51:41.343Z,74.20
2018-12-13T08:54:07.577Z,74.10
2018-12-13T08:56:33.806Z,72.60
2018-12-13T08:59:00.105Z,72.90
2018-12-13T09:01:26.362Z,73.60
2018-12-13T09:03:52.613Z,72.80
2018-12-13T09:06:18.825Z,73.50
2018-12-13T09:08:45.163Z,72.90
2018-12-13T09:11:11.489Z,73.00
2018-12-13T09:13:37.778Z,73.10
2018-12-13T09:16:04.033Z,72.40
2018-12-13T09:18:30.261Z,71.90
2018-12-13T09:20:56.465Z,71.80
2018-12-13T09:23:22.773Z,72.30
2018-12-13T09:25:49.070Z,72.10
2018-12-13T09:28:15.364Z,71.80
2018-12-13T09:30:41.588Z,72.70
2018-12-13T09:33:07.899Z,71.40
2018-12-13T09:35:34.131Z,71.80
2018-12-13T09:38:00.426Z,72.20
2018-12-13T09:40:26.694Z,72.40
2018-12-13T09:42:52.912Z,72.40
2018-12-13T09:45:19.193Z,72.10
2018-12-13T09:47:45.424Z,72.00
2018-12-13T09:50:11.855Z,71.90
2018-12-13T09:52:38.146Z,71.50
2018-12-13T09:55:05.823Z,71.60
2018-12-13T09:57:33.226Z,71.50
2018-12-13T10:00:00.229Z,71.60
2018-12-13T10:02:26.626Z,71.40
2018-12-13T10:04:52.847Z,70.90
2018-12-13T10:07:19.108Z,71.30
2018-12-13T10:09:45.368Z,71.70
2018-12-13T10:12:11.647Z,71.20
2018-12-13T10:14:37.946Z,71.80
2018-12-13T10:17:04.322Z,71.60
2018-12-13T10:19:30.595Z,71.30
2018-12-13T10:21:56.884Z,71.10
2018-12-13T10:24:23.130Z,70.90
2018-12-13T10:26:49.391Z,71.00
2018-12-13T10:29:15.658Z,71.70
2018-12-13T10:31:42.064Z,71.20
2018-12-13T10:34:08.294Z,71.30
2018-12-13T10:36:34.575Z,70.60
2018-12-13T10:39:00.796Z,70.80
2018-12-13T10:41:27.601Z,70.90
2018-12-13T10:43:53.999Z,70.90
2018-12-13T10:46:20.247Z,71.00
2018-12-13T10:48:46.575Z,71.10
2018-12-13T10:51:12.830Z,70.40
2018-12-13T10:53:39.124Z,70.50
2018-12-13T10:56:05.377Z,70.70
2018-12-13T10:58:31.647Z,70.70
2018-12-13T11:01:04.199Z,70.90
2018-12-13T11:03:35.495Z,71.50
2018-12-13T11:06:02.120Z,70.70
2018-12-13T11:08:28.360Z,70.70
2018-12-13T11:10:54.577Z,71.10
2018-12-13T11:13:20.870Z,70.70
2018-12-13T11:15:47.118Z,71.20
2018-12-13T11:18:13.524Z,71.00
2018-12-13T11:20:39.903Z,71.30
2018-12-13T11:23:06.259Z,71.40
2018-12-13T11:25:32.541Z,71.90
2018-12-13T11:28:11.875Z,72.40
2018-12-13T11:30:38.149Z,73.10
2018-12-13T11:33:04.462Z,73.20
2018-12-13T11:35:30.763Z,73.50
2018-12-13T11:37:57.031Z,73.60
2018-12-13T11:40:23.259Z,74.10
2018-12-13T11:42:49.565Z,74.00
2018-12-13T11:45:15.914Z,74.10
2018-12-13T11:47:42.162Z,73.60
2018-12-13T11:50:08.508Z,74.10
2018-12-13T11:52:34.740Z,73.70
2018-12-13T11:58:03.948Z,74.50
2018-12-13T12:00:30.270Z,75.10
2018-12-13T12:02:56.543Z,75.40
2018-12-13T12:05:22.771Z,76.10
2018-12-13T12:07:49.041Z,76.80
2018-12-13T12:10:15.471Z,77.40
2018-12-13T12:12:41.845Z,77.70
2018-12-13T12:15:08.366Z,77.50
2018-12-13T12:17:34.623Z,77.50
2018-12-13T12:20:01.041Z,77.60
2018-12-13T12:22:27.347Z,77.60
2018-12-13T12:24:53.600Z,77.50
2018-12-13T12:27:19.870Z,77.30
2018-12-13T12:29:46.106Z,76.50
2018-12-13T12:32:12.357Z,76.50
2018-12-13T12:34:38.611Z,75.90
2018-12-13T12:37:04.872Z,75.60
2018-12-13T12:39:31.132Z,75.90
2018-12-13T12:41:57.482Z,75.60
2018-12-13T12:44:25.800Z,75.40
2018-12-13T12:46:52.036Z,76.00
2018-12-13T12:49:18.307Z,76.10
2018-12-13T12:51:44.581Z,76.20
2018-12-13T12:54:10.864Z,76.60
2018-12-13T12:56:37.315Z,76.80
2018-12-13T12:59:03.568Z,76.90
2018-12-13T13:01:29.862Z,76.00
2018-12-13T13:03:56.193Z,76.50
2018-12-13T13:06:22.557Z,76.80
2018-12-13T13:08:48.784Z,76.80
2018-12-13T13:11:15.125Z,76.80
2018-12-13T13:13:41.412Z,76.90
2018-12-13T13:16:07.704Z,76.70
2018-12-13T13:18:39.052Z,76.80
2018-12-13T13:21:02.324Z,76.20
2018-12-13T13:23:28.614Z,75.80
2018-12-13T13:25:54.943Z,76.50
2018-12-13T13:28:21.213Z,77.00
2018-12-13T13:30:47.591Z,76.30
2018-12-13T13:33:13.900Z,76.40
2018-12-13T13:35:40.150Z,76.20
2018-12-13T13:38:06.405Z,75.90
2018-12-13T13:40:32.699Z,76.30
2018-12-13T13:42:58.976Z,75.70
2018-12-13T13:45:25.675Z,75.90
2018-12-13T13:47:51.940Z,75.90
2018-12-13T13:50:18.394Z,75.90
2018-12-13T13:52:44.633Z,76.50
2018-12-13T13:55:11.016Z,76.40
2018-12-13T13:57:37.290Z,76.80
2018-12-13T14:00:06.095Z,76.50
2018-12-13T14:02:32.380Z,76.30
2018-12-13T14:04:58.660Z,76.10
2018-12-13T14:07:25.046Z,76.80
2018-12-13T14:09:51.299Z,75.60
2018-12-13T14:12:17.557Z,75.10
2018-12-13T14:14:43.814Z,76.10
2018-12-13T14:17:10.107Z,76.70
2018-12-13T14:19:36.323Z,77.00
2018-12-13T14:22:02.633Z,77.00
2018-12-13T14:24:28.879Z,75.80
2018-12-13T14:26:55.158Z,76.30
2018-12-13T14:29:21.407Z,76.50
2018-12-13T14:31:47.687Z,77.00
2018-12-13T14:34:13.954Z,77.20
2018-12-13T14:36:40.248Z,77.50
2018-12-13T14:39:06.669Z,77.50
2018-12-13T14:41:32.966Z,77.90
2018-12-13T14:43:59.246Z,78.30
2018-12-13T14:46:25.553Z,78.30
2018-12-13T14:48:51.863Z,77.90
2018-12-13T14:51:18.236Z,78.70
2018-12-13T14:53:44.534Z,78.50
2018-12-13T14:56:10.772Z,78.70
2018-12-13T14:58:37.004Z,78.50
2018-12-13T15:01:03.327Z,78.60
2018-12-13T15:03:29.593Z,78.10
2018-12-13T15:05:55.899Z,78.40
2018-12-13T15:08:22.172Z,77.70
2018-12-13T15:10:48.452Z,77.60
2018-12-13T15:13:14.830Z,77.20
2018-12-13T15:15:41.098Z,77.00
2018-12-13T15:18:07.440Z,77.70
2018-12-13T15:20:33.711Z,77.50
2018-12-13T15:22:59.980Z,76.90
2018-12-13T15:25:26.281Z,76.80
2018-12-13T15:27:52.556Z,76.70
2018-12-13T15:30:18.862Z,76.80
2018-12-13T15:32:45.112Z,76.40
2018-12-13T15:35:11.407Z,76.20
2018-12-13T15:37:37.676Z,76.00
2018-12-13T15:40:04.298Z,75.80
2018-12-13T15:42:30.633Z,76.00
2018-12-13T15:44:56.932Z,75.20
2018-12-13T15:47:23.228Z,75.60
2018-12-13T15:49:49.824Z,75.90
2018-12-13T15:52:16.180Z,75.00
2018-12-13T15:54:42.441Z,74.90
2018-12-13T15:57:08.838Z,74.80
2018-12-13T15:59:35.097Z,74.80
2018-12-13T16:02:01.367Z,74.60
2018-12-13T16:04:27.666Z,74.80
2018-12-13T16:06:54.048Z,74.50
2018-12-13T16:09:20.472Z,74.50
2018-12-13T16:11:46.772Z,73.80
2018-12-13T16:14:13.031Z,73.70
2018-12-13T16:16:39.351Z,73.80
2018-12-13T16:19:05.602Z,74.40
2018-12-13T16:21:31.833Z,73.60
2018-12-13T16:23:58.087Z,73.90
2018-12-13T16:26:24.387Z,73.40
2018-12-13T16:28:50.700Z,73.40
2018-12-13T16:31:17.010Z,73.20
2018-12-13T16:33:43.272Z,72.80
2018-12-13T16:36:09.548Z,73.00
2018-12-13T16:38:35.830Z,72.80
2018-12-13T16:41:02.156Z,72.30
2018-12-13T16:43:28.398Z,72.70
2018-12-13T16:45:54.638Z,72.60
2018-12-13T16:48:20.947Z,72.90
2018-12-13T16:50:47.273Z,72.30
2018-12-13T16:53:13.560Z,72.50
2018-12-13T16:55:39.804Z,72.40
2018-12-13T16:58:06.103Z,72.10
2018-12-13T17:00:32.353Z,72.20
2018-12-13T17:02:58.663Z,72.30
2018-12-13T17:05:24.950Z,71.50
2018-12-13T17:07:51.283Z,71.60
2018-12-13T17:10:17.688Z,71.40
2018-12-13T17:12:43.941Z,71.20
2018-12-13T17:15:10.238Z,71.40
2018-12-13T17:17:36.532Z,71.50
2018-12-13T17:20:03.158Z,71.00
2018-12-13T17:22:29.443Z,70.90
2018-12-13T17:24:56.402Z,70.90
2018-12-13T17:27:23.891Z,71.40
2018-12-13T17:29:51.428Z,71.20
2018-12-13T17:32:19.828Z,70.40
2018-12-13T17:34:46.365Z,70.40
2018-12-13T17:37:13.003Z,70.60
2018-12-13T17:39:45.863Z,70.50
2018-12-13T17:42:16.575Z,70.30
2018-12-13T17:44:44.949Z,70.10
2018-12-13T17:47:11.201Z,70.40
2018-12-13T17:49:37.472Z,70.40
2018-12-13T17:52:05.196Z,69.90
2018-12-13T17:54:34.104Z,69.50
2018-12-13T17:57:00.569Z,69.40
2018-12-13T17:59:30.610Z,70.00
2018-12-13T18:01:59.895Z,70.30
2018-12-13T18:04:28.125Z,70.10
2018-12-13T18:06:58.376Z,70.10
2018-12-13T18:09:27.022Z,70.10
2018-12-13T18:11:57.984Z,70.10
2018-12-13T18:14:24.681Z,70.30
2018-12-13T18:16:50.997Z,70.40
2018-12-13T18:19:17.383Z,69.90
2018-12-13T18:21:43.675Z,70.50
2018-12-13T18:24:09.926Z,71.00
2018-12-13T18:26:36.266Z,70.50
2018-12-13T18:29:05.235Z,70.70
2018-12-13T18:31:44.203Z,69.80
2018-12-13T18:34:14.103Z,70.30
2018-12-13T18:36:52.004Z,70.10
2018-12-13T18:39:41.175Z,69.60
2018-12-13T18:42:17.006Z,70.10
2018-12-13T18:58:20.687Z,70.60
2018-12-13T19:03:52.839Z,70.40
2018-12-13T19:06:26.323Z,70.30
2018-12-13T19:08:57.560Z,70.00
2018-12-13T19:11:29.457Z,70.40
2018-12-13T19:14:00.753Z,69.50
2018-12-13T19:16:31.779Z,69.90
2018-12-13T19:19:07.344Z,70.00
2018-12-13T19:21:36.407Z,69.60
2018-12-13T19:24:04.610Z,70.00
2018-12-13T19:26:32.737Z,69.90
2018-12-13T19:29:00.892Z,70.20
2018-12-13T19:31:29.104Z,69.90
2018-12-13T19:33:56.949Z,68.90
2018-12-13T19:36:24.809Z,69.00
2018-12-13T19:38:53.061Z,69.10
2018-12-13T19:41:21.416Z,69.50
2018-12-13T19:43:47.880Z,68.60
2018-12-13T19:46:14.144Z,68.80
2018-12-13T19:48:42.366Z,69.20
2018-12-13T19:51:09.683Z,69.20
2018-12-13T19:53:35.992Z,68.50
2018-12-13T19:56:02.334Z,68.60
2018-12-13T19:58:28.587Z,68.90
2018-12-13T20:00:55.881Z,68.40
2018-12-13T20:03:22.104Z,68.40
2018-12-13T20:05:50.885Z,68.30
2018-12-13T20:08:18.857Z,68.50
2018-12-13T20:10:46.721Z,68.60
2018-12-13T20:13:14.946Z,68.20
2018-12-13T20:15:41.902Z,68.40
2018-12-13T20:18:09.536Z,68.10
2018-12-13T20:20:35.850Z,67.80
2018-12-13T20:23:02.143Z,68.00
2018-12-13T20:25:28.452Z,67.60
2018-12-13T20:27:54.716Z,67.40
2018-12-13T20:30:21.061Z,67.30
2018-12-13T20:32:47.522Z,67.30
2018-12-13T20:35:14.118Z,67.30
2018-12-13T20:37:40.398Z,67.50
2018-12-13T20:40:06.719Z,68.20
2018-12-13T20:42:32.964Z,67.70
2018-12-13T20:44:59.221Z,67.20
2018-12-13T20:47:25.479Z,67.30
2018-12-13T20:49:51.746Z,67.60
2018-12-13T20:52:18.158Z,67.70
2018-12-13T20:54:44.403Z,67.60
2018-12-13T20:57:10.676Z,67.40
2018-12-13T20:59:36.976Z,67.50
2018-12-13T21:02:03.389Z,67.50
2018-12-13T21:04:29.648Z,67.50
2018-12-13T21:07:01.945Z,67.20
2018-12-13T21:09:28.197Z,66.70
2018-12-13T21:11:54.470Z,66.80
2018-12-13T21:14:20.785Z,67.00
2018-12-13T21:16:47.054Z,67.50
2018-12-13T21:19:13.314Z,67.30
2018-12-13T21:21:39.611Z,67.20
2018-12-13T21:24:05.895Z,66.80
2018-12-13T21:26:32.218Z,66.80
2018-12-13T21:28:58.516Z,67.20
2018-12-13T21:31:24.793Z,67.20
2018-12-13T21:33:51.374Z,66.90
2018-12-13T21:36:17.706Z,66.80
2018-12-13T21:38:43.944Z,67.10
2018-12-13T21:41:13.627Z,67.10
2018-12-13T21:43:38.508Z,66.80
2018-12-13T21:46:04.760Z,67.10
2018-12-13T21:48:31.079Z,66.80
2018-12-13T21:50:57.348Z,67.00
2018-12-13T21:53:23.930Z,67.10
2018-12-13T21:55:50.298Z,66.90
2018-12-13T21:58:16.610Z,66.40
2018-12-13T22:00:42.879Z,66.50
2018-12-13T22:03:09.173Z,66.70
2018-12-13T22:05:35.504Z,66.90
2018-12-13T22:08:01.811Z,66.90
2018-12-13T22:10:28.394Z,66.30
2018-12-13T22:12:54.670Z,66.80
2018-12-13T22:15:21.010Z,67.00
2018-12-13T22:17:47.409Z,66.20
2018-12-13T22:20:13.713Z,66.40
2018-12-13T22:22:41.102Z,66.60
2018-12-13T22:25:07.370Z,67.00
2018-12-13T22:27:33.656Z,67.00
2018-12-13T22:29:59.964Z,66.90
2018-12-13T22:32:26.276Z,67.20
2018-12-13T22:34:52.518Z,67.10
2018-12-13T22:37:19.007Z,67.10
2018-12-13T22:39:45.320Z,67.40
2018-12-13T22:42:12.013Z,67.60
2018-12-13T22:44:38.282Z,67.80
2018-12-13T22:47:04.696Z,67.60
2018-12-13T22:49:31.012Z,67.80
2018-12-13T22:51:57.410Z,67.80
2018-12-13T22:54:23.661Z,67.60
2018-12-13T22:56:49.998Z,67.70
2018-12-13T22:59:16.373Z,67.90
2018-12-13T23:01:42.649Z,68.10
2018-12-13T23:07:12.248Z,68.30
2018-12-13T23:09:38.575Z,67.90
2018-12-13T23:12:04.877Z,67.70
2018-12-13T23:14:31.193Z,67.90
2018-12-13T23:16:57.870Z,68.20
2018-12-13T23:19:24.147Z,68.00
2018-12-13T23:21:50.416Z,68.10
2018-12-13T23:24:16.744Z,68.10
2018-12-13T23:26:43.036Z,68.20
2018-12-13T23:29:09.302Z,68.10
2018-12-13T23:31:35.553Z,68.20
2018-12-13T23:34:01.855Z,68.30
2018-12-13T23:36:28.203Z,68.50
2018-12-13T23:38:54.449Z,68.40
2018-12-13T23:41:20.735Z,68.40
2018-12-13T23:43:47.004Z,68.60
2018-12-13T23:46:13.264Z,68.60
2018-12-13T23:48:39.568Z,68.50
2018-12-13T23:51:05.969Z,68.50
2018-12-13T23:53:32.418Z,68.30
2018-12-13T23:55:58.933Z,68.50
2018-12-13T23:58:25.521Z,68.70
